sensor_id;sensor_type;location;lat;lon;timestamp;pressure;altitude;pressure_sealevel;temperature;humidity
59859;BME280;45734;53.648;9.566;2023-05-25T00:02:13;93710.69;;;-145.06;100.00
59859;BME280;45734;53.648;9.566;2023-05-25T00:07:14;93737.28;;;-145.06;100.00
59859;BME280;45734;53.648;9.566;2023-05-25T00:12:15;93745.47;;;-145.06;100.00
59859;BME280;45734;53.648;9.566;2023-05-25T00:17:15;93776.16;;;-145.06;100.00
59859;BME280;45734;53.648;9.566;2023-05-25T00:22:17;93743.44;;;-145.06;100.00
59859;BME280;45734;53.648;9.566;2023-05-25T00:27:19;93770.03;;;-145.06;100.00
59859;BME280;45734;53.648;9.566;2023-05-25T00:32:22;93776.16;;;-145.06;100.00
59859;BME280;45734;53.648;9.566;2023-05-25T00:37:22;93825.25;;;-145.06;100.00
59859;BME280;45734;53.648;9.566;2023-05-25T00:42:23;93812.97;;;-145.06;100.00
59859;BME280;45734;53.648;9.566;2023-05-25T00:47:23;93849.78;;;-145.06;100.00
59859;BME280;45734;53.648;9.566;2023-05-25T00:52:24;93815.03;;;-145.06;100.00
59859;BME280;45734;53.648;9.566;2023-05-25T00:57:27;93868.19;;;-145.06;100.00
59859;BME280;45734;53.648;9.566;2023-05-25T01:02:28;93907.06;;;-145.06;100.00
59859;BME280;45734;53.648;9.566;2023-05-25T01:07:30;93882.53;;;-145.06;100.00
59859;BME280;45734;53.648;9.566;2023-05-25T01:12:39;93905.03;;;-145.06;100.00
59859;BME280;45734;53.648;9.566;2023-05-25T01:17:41;93911.16;;;-145.06;100.00
59859;BME280;45734;53.648;9.566;2023-05-25T01:22:47;93925.47;;;-145.06;100.00
59859;BME280;45734;53.648;9.566;2023-05-25T01:27:54;93913.22;;;-145.06;100.00
59859;BME280;45734;53.648;9.566;2023-05-25T01:32:58;93956.16;;;-145.06;100.00
59859;BME280;45734;53.648;9.566;2023-05-25T01:37:58;93962.28;;;-145.06;100.00
59859;BME280;45734;53.648;9.566;2023-05-25T01:42:59;94011.38;;;-145.06;100.00
59859;BME280;45734;53.648;9.566;2023-05-25T01:48:20;94037.97;;;-145.06;100.00
59859;BME280;45734;53.648;9.566;2023-05-25T01:53:42;94001.16;;;-145.06;100.00
59859;BME280;45734;53.648;9.566;2023-05-25T01:58:46;94062.53;;;-145.06;100.00
59859;BME280;45734;53.648;9.566;2023-05-25T02:03:48;94050.25;;;-145.06;100.00
59859;BME280;45734;53.648;9.566;2023-05-25T02:08:48;94068.66;;;-145.06;100.00
59859;BME280;45734;53.648;9.566;2023-05-25T02:13:49;94119.81;;;-145.06;100.00
59859;BME280;45734;53.648;9.566;2023-05-25T02:18:49;94078.91;;;-145.06;100.00
59859;BME280;45734;53.648;9.566;2023-05-25T02:23:50;94154.59;;;-145.06;100.00
59859;BME280;45734;53.648;9.566;2023-05-25T02:28:51;94177.09;;;-145.06;100.00
59859;BME280;45734;53.648;9.566;2023-05-25T02:33:51;94308.00;;;-145.06;100.00
59859;BME280;45734;53.648;9.566;2023-05-25T02:38:51;94281.41;;;-145.06;100.00
59859;BME280;45734;53.648;9.566;2023-05-25T02:43:52;94332.56;;;-145.06;100.00
59859;BME280;45734;53.648;9.566;2023-05-25T02:48:52;94175.03;;;-145.06;100.00
59859;BME280;45734;53.648;9.566;2023-05-25T02:53:53;94138.22;;;-145.06;100.00
59859;BME280;45734;53.648;9.566;2023-05-25T02:58:53;94197.53;;;-145.06;100.00
59859;BME280;45734;53.648;9.566;2023-05-25T03:03:54;94164.81;;;-145.06;100.00
59859;BME280;45734;53.648;9.566;2023-05-25T03:08:54;94175.03;;;-145.06;100.00
59859;BME280;45734;53.648;9.566;2023-05-25T03:13:54;94164.81;;;-145.06;100.00
59859;BME280;45734;53.648;9.566;2023-05-25T03:18:55;94183.22;;;-145.06;100.00
59859;BME280;45734;53.648;9.566;2023-05-25T03:23:55;94140.25;;;-145.06;100.00
59859;BME280;45734;53.648;9.566;2023-05-25T03:28:55;93610.47;;;-145.06;100.00
59859;BME280;45734;53.648;9.566;2023-05-25T03:33:55;93651.38;;;-145.06;100.00
59859;BME280;45734;53.648;9.566;2023-05-25T03:38:56;94160.72;;;-145.06;100.00
59859;BME280;45734;53.648;9.566;2023-05-25T03:44:02;93675.94;;;-145.06;100.00
59859;BME280;45734;53.648;9.566;2023-05-25T03:49:02;93401.84;;;-145.06;100.00
59859;BME280;45734;53.648;9.566;2023-05-25T03:54:03;93890.72;;;-145.06;100.00
59859;BME280;45734;53.648;9.566;2023-05-25T03:59:03;93379.38;;;-145.06;100.00
59859;BME280;45734;53.648;9.566;2023-05-25T04:04:04;92947.84;;;-145.06;100.00
59859;BME280;45734;53.648;9.566;2023-05-25T04:09:05;92753.56;;;-145.06;100.00
59859;BME280;45734;53.648;9.566;2023-05-25T04:14:05;92585.88;;;-145.06;100.00
59859;BME280;45734;53.648;9.566;2023-05-25T04:19:06;92426.38;;;-145.06;100.00
59859;BME280;45734;53.648;9.566;2023-05-25T04:24:06;92307.78;;;-145.06;100.00
59859;BME280;45734;53.648;9.566;2023-05-25T04:29:08;92111.50;;;-145.06;99.88
59859;BME280;45734;53.648;9.566;2023-05-25T04:34:08;92042.00;;;-145.06;95.61
59859;BME280;45734;53.648;9.566;2023-05-25T04:39:09;92009.28;;;-145.06;89.95
59859;BME280;45734;53.648;9.566;2023-05-25T04:44:09;91927.50;;;-145.06;88.31
59859;BME280;45734;53.648;9.566;2023-05-25T04:49:10;91749.63;;;-145.06;82.76
59859;BME280;45734;53.648;9.566;2023-05-25T04:54:12;91620.84;;;-145.06;76.81
59859;BME280;45734;53.648;9.566;2023-05-25T04:59:12;91551.31;;;-145.06;72.28
59859;BME280;45734;53.648;9.566;2023-05-25T05:04:12;91504.31;;;-145.06;71.61
59859;BME280;45734;53.648;9.566;2023-05-25T05:09:15;91524.75;;;-145.06;72.27
59859;BME280;45734;53.648;9.566;2023-05-25T05:14:15;91442.97;;;-145.06;72.73
59859;BME280;45734;53.648;9.566;2023-05-25T05:19:16;91330.53;;;-145.06;67.67
59859;BME280;45734;53.648;9.566;2023-05-25T05:24:16;91279.44;;;-145.06;64.16
59859;BME280;45734;53.648;9.566;2023-05-25T05:29:16;91301.94;;;-145.06;65.86
59859;BME280;45734;53.648;9.566;2023-05-25T05:34:18;91308.06;;;-145.06;64.88
59859;BME280;45734;53.648;9.566;2023-05-25T05:39:19;91273.31;;;-145.06;63.01
59859;BME280;45734;53.648;9.566;2023-05-25T05:44:20;91244.69;;;-145.06;63.96
59859;BME280;45734;53.648;9.566;2023-05-25T05:49:21;91126.13;;;-145.06;61.27
59859;BME280;45734;53.648;9.566;2023-05-25T05:54:21;91126.13;;;-145.06;60.43
59859;BME280;45734;53.648;9.566;2023-05-25T05:59:22;91044.38;;;-145.06;55.96
59859;BME280;45734;53.648;9.566;2023-05-25T06:04:23;91109.78;;;-145.06;57.69
59859;BME280;45734;53.648;9.566;2023-05-25T06:09:27;91054.59;;;-145.06;57.39
59859;BME280;45734;53.648;9.566;2023-05-25T06:14:27;91019.84;;;-145.06;56.86
59859;BME280;45734;53.648;9.566;2023-05-25T06:19:28;90991.22;;;-145.06;54.75
59859;BME280;45734;53.648;9.566;2023-05-25T06:24:28;90956.47;;;-145.06;53.34
59859;BME280;45734;53.648;9.566;2023-05-25T06:29:29;90807.25;;;-145.06;51.47
59859;BME280;45734;53.648;9.566;2023-05-25T06:34:29;90848.13;;;-145.06;49.55
59859;BME280;45734;53.648;9.566;2023-05-25T06:39:30;90854.28;;;-145.06;49.53
59859;BME280;45734;53.648;9.566;2023-05-25T06:44:30;90833.84;;;-145.06;48.35
59859;BME280;45734;53.648;9.566;2023-05-25T06:49:30;90844.06;;;-145.06;48.92
59859;BME280;45734;53.648;9.566;2023-05-25T06:54:30;90803.16;;;-145.06;48.45
59859;BME280;45734;53.648;9.566;2023-05-25T06:59:32;90807.25;;;-145.06;48.21
59859;BME280;45734;53.648;9.566;2023-05-25T07:04:32;90778.66;;;-145.06;48.43
59859;BME280;45734;53.648;9.566;2023-05-25T07:09:33;90999.41;;;-145.06;45.98
59859;BME280;45734;53.648;9.566;2023-05-25T07:14:33;90946.25;;;-145.06;50.98
59859;BME280;45734;53.648;9.566;2023-05-25T07:19:34;90782.72;;;-145.06;50.65
59859;BME280;45734;53.648;9.566;2023-05-25T07:24:35;90858.34;;;-145.06;49.58
59859;BME280;45734;53.648;9.566;2023-05-25T07:29:35;90664.19;;;-145.06;47.05
59859;BME280;45734;53.648;9.566;2023-05-25T07:34:35;90909.47;;;-145.06;48.82
59859;BME280;45734;53.648;9.566;2023-05-25T07:39:36;90811.34;;;-145.06;48.16
59859;BME280;45734;53.648;9.566;2023-05-25T07:44:36;90797.03;;;-145.06;47.54
59859;BME280;45734;53.648;9.566;2023-05-25T07:49:36;90745.94;;;-145.06;47.18
59859;BME280;45734;53.648;9.566;2023-05-25T07:54:37;90848.13;;;-145.06;45.89
59859;BME280;45734;53.648;9.566;2023-05-25T07:59:39;90586.53;;;-145.06;46.17
59859;BME280;45734;53.648;9.566;2023-05-25T08:04:39;90517.03;;;-145.06;46.45
59859;BME280;45734;53.648;9.566;2023-05-25T08:09:40;91267.19;;;-145.06;43.34
59859;BME280;45734;53.648;9.566;2023-05-25T08:14:40;90762.28;;;-145.06;46.79
59859;BME280;45734;53.648;9.566;2023-05-25T08:19:40;90711.19;;;-145.06;46.19
59859;BME280;45734;53.648;9.566;2023-05-25T08:24:41;90623.31;;;-145.06;44.02
59859;BME280;45734;53.648;9.566;2023-05-25T08:29:41;90592.66;;;-145.06;42.89
59859;BME280;45734;53.648;9.566;2023-05-25T08:34:41;90690.75;;;-145.06;45.79
59859;BME280;45734;53.648;9.566;2023-05-25T08:39:42;90694.84;;;-145.06;43.57
59859;BME280;45734;53.648;9.566;2023-05-25T08:44:42;91152.69;;;-145.06;44.07
59859;BME280;45734;53.648;9.566;2023-05-25T08:49:43;90745.94;;;-145.06;45.22
59859;BME280;45734;53.648;9.566;2023-05-25T08:54:45;90792.94;;;-145.06;45.55
59859;BME280;45734;53.648;9.566;2023-05-25T09:00:05;90903.31;;;-145.06;47.84
59859;BME280;45734;53.648;9.566;2023-05-25T09:05:09;90917.63;;;-145.06;49.34
59859;BME280;45734;53.648;9.566;2023-05-25T09:10:11;90884.94;;;-145.06;52.08
59859;BME280;45734;53.648;9.566;2023-05-25T09:15:11;91506.34;;;-145.06;51.15
59859;BME280;45734;53.648;9.566;2023-05-25T09:20:12;90774.56;;;-145.06;49.54
59859;BME280;45734;53.648;9.566;2023-05-25T09:25:16;91485.91;;;-145.06;49.22
59859;BME280;45734;53.648;9.566;2023-05-25T09:30:17;90790.91;;;-145.06;49.96
59859;BME280;45734;53.648;9.566;2023-05-25T09:35:17;90676.44;;;-145.06;48.93
59859;BME280;45734;53.648;9.566;2023-05-25T09:40:18;90844.06;;;-145.06;46.55
59859;BME280;45734;53.648;9.566;2023-05-25T09:45:19;90829.75;;;-145.06;49.00
59859;BME280;45734;53.648;9.566;2023-05-25T09:50:19;90705.06;;;-145.06;44.68
59859;BME280;45734;53.648;9.566;2023-05-25T09:55:20;90754.13;;;-145.06;48.82
59859;BME280;45734;53.648;9.566;2023-05-25T10:00:22;90719.38;;;-145.06;47.96
59859;BME280;45734;53.648;9.566;2023-05-25T10:05:23;90782.72;;;-145.06;48.81
59859;BME280;45734;53.648;9.566;2023-05-25T10:10:23;90874.72;;;-145.06;48.87
59859;BME280;45734;53.648;9.566;2023-05-25T10:15:24;90909.47;;;-145.06;49.52
59859;BME280;45734;53.648;9.566;2023-05-25T10:20:25;90923.78;;;-145.06;48.50
59859;BME280;45734;53.648;9.566;2023-05-25T10:25:32;90970.78;;;-145.06;47.70
59859;BME280;45734;53.648;9.566;2023-05-25T10:30:35;90983.03;;;-145.06;48.74
59859;BME280;45734;53.648;9.566;2023-05-25T10:35:39;91060.72;;;-145.06;50.44
59859;BME280;45734;53.648;9.566;2023-05-25T10:40:40;91060.72;;;-145.06;47.18
59859;BME280;45734;53.648;9.566;2023-05-25T10:45:41;91183.38;;;-145.06;50.59
59859;BME280;45734;53.648;9.566;2023-05-25T10:50:41;91261.03;;;-145.06;53.29
59859;BME280;45734;53.648;9.566;2023-05-25T10:55:47;91195.63;;;-145.06;47.98
59859;BME280;45734;53.648;9.566;2023-05-25T11:01:12;91230.38;;;-145.06;49.67
59859;BME280;45734;53.648;9.566;2023-05-25T11:06:13;91297.84;;;-145.06;52.04
59859;BME280;45734;53.648;9.566;2023-05-25T11:11:17;91297.84;;;-145.06;50.04
59859;BME280;45734;53.648;9.566;2023-05-25T11:26:35;91222.19;;;-145.06;49.91
59859;BME280;45734;53.648;9.566;2023-05-25T11:31:35;91285.56;;;-145.06;54.60
59859;BME280;45734;53.648;9.566;2023-05-25T11:36:36;91224.25;;;-145.06;52.53
59859;BME280;45734;53.648;9.566;2023-05-25T11:41:38;91498.16;;;-145.06;51.60
59859;BME280;45734;53.648;9.566;2023-05-25T11:46:40;91308.06;;;-145.06;51.58
59859;BME280;45734;53.648;9.566;2023-05-25T11:51:42;91344.84;;;-145.06;50.26
59859;BME280;45734;53.648;9.566;2023-05-25T11:56:42;91398.00;;;-145.06;52.71
59859;BME280;45734;53.648;9.566;2023-05-25T12:01:43;91316.22;;;-145.06;50.45
59859;BME280;45734;53.648;9.566;2023-05-25T12:06:43;91363.25;;;-145.06;51.97
59859;BME280;45734;53.648;9.566;2023-05-25T12:11:45;91355.06;;;-145.06;52.20
59859;BME280;45734;53.648;9.566;2023-05-25T12:16:45;91400.06;;;-145.06;51.55
59859;BME280;45734;53.648;9.566;2023-05-25T12:21:46;91387.78;;;-145.06;52.70
59859;BME280;45734;53.648;9.566;2023-05-25T12:26:51;91338.72;;;-145.06;51.04
59859;BME280;45734;53.648;9.566;2023-05-25T12:32:02;91346.91;;;-145.06;50.54
59859;BME280;45734;53.648;9.566;2023-05-25T12:37:04;91373.47;;;-145.06;53.50
59859;BME280;45734;53.648;9.566;2023-05-25T12:42:11;91355.06;;;-145.06;52.78
59859;BME280;45734;53.648;9.566;2023-05-25T12:47:14;91379.59;;;-145.06;53.43
59859;BME280;45734;53.648;9.566;2023-05-25T12:52:40;91434.81;;;-145.06;55.23
59859;BME280;45734;53.648;9.566;2023-05-25T12:57:42;91424.56;;;-145.06;53.19
59859;BME280;45734;53.648;9.566;2023-05-25T13:02:43;91379.59;;;-145.06;52.88
59859;BME280;45734;53.648;9.566;2023-05-25T13:07:45;91485.91;;;-145.06;57.09
59859;BME280;45734;53.648;9.566;2023-05-25T13:12:46;91365.28;;;-145.06;52.90
59859;BME280;45734;53.648;9.566;2023-05-25T13:17:48;91375.50;;;-145.06;52.49
59859;BME280;45734;53.648;9.566;2023-05-25T13:22:50;91365.28;;;-145.06;51.84
59859;BME280;45734;53.648;9.566;2023-05-25T13:27:51;91387.78;;;-145.06;53.38
59859;BME280;45734;53.648;9.566;2023-05-25T13:32:53;91416.41;;;-145.06;54.36
59859;BME280;45734;53.648;9.566;2023-05-25T13:37:53;91398.00;;;-145.06;56.50
59859;BME280;45734;53.648;9.566;2023-05-25T13:42:53;91361.22;;;-145.06;54.83
59859;BME280;45734;53.648;9.566;2023-05-25T13:47:54;91463.41;;;-145.06;58.04
59859;BME280;45734;53.648;9.566;2023-05-25T13:52:54;91449.09;;;-145.06;57.08
59859;BME280;45734;53.648;9.566;2023-05-25T13:57:55;91494.09;;;-145.06;60.26
59859;BME280;45734;53.648;9.566;2023-05-25T14:02:55;91741.44;;;-145.06;60.71
59859;BME280;45734;53.648;9.566;2023-05-25T14:07:55;91518.63;;;-145.06;61.50
59859;BME280;45734;53.648;9.566;2023-05-25T14:12:56;91526.78;;;-145.06;63.28
59859;BME280;45734;53.648;9.566;2023-05-25T14:17:56;91516.56;;;-145.06;62.75
59859;BME280;45734;53.648;9.566;2023-05-25T14:22:56;91582.00;;;-145.06;63.81
59859;BME280;45734;53.648;9.566;2023-05-25T14:27:57;91551.31;;;-145.06;63.90
59859;BME280;45734;53.648;9.566;2023-05-25T14:32:57;91541.09;;;-145.06;64.32
59859;BME280;45734;53.648;9.566;2023-05-25T14:37:57;91584.03;;;-145.06;65.37
59859;BME280;45734;53.648;9.566;2023-05-25T14:42:57;91555.41;;;-145.06;64.47
59859;BME280;45734;53.648;9.566;2023-05-25T14:47:58;91569.72;;;-145.06;65.89
59859;BME280;45734;53.648;9.566;2023-05-25T14:52:58;91565.63;;;-145.06;65.71
59859;BME280;45734;53.648;9.566;2023-05-25T14:57:58;91549.28;;;-145.06;65.31
59859;BME280;45734;53.648;9.566;2023-05-25T15:02:59;91592.22;;;-145.06;64.35
59859;BME280;45734;53.648;9.566;2023-05-25T15:07:59;91561.53;;;-145.06;65.37
59859;BME280;45734;53.648;9.566;2023-05-25T15:12:59;91588.13;;;-145.06;66.80
59859;BME280;45734;53.648;9.566;2023-05-25T15:18:00;91584.03;;;-145.06;67.01
59859;BME280;45734;53.648;9.566;2023-05-25T15:23:00;91584.03;;;-145.06;65.25
59859;BME280;45734;53.648;9.566;2023-05-25T15:28:00;91606.53;;;-145.06;66.77
59859;BME280;45734;53.648;9.566;2023-05-25T15:33:01;91604.47;;;-145.06;66.80
59859;BME280;45734;53.648;9.566;2023-05-25T15:38:01;91637.19;;;-145.06;66.44
59859;BME280;45734;53.648;9.566;2023-05-25T15:43:02;91637.19;;;-145.06;66.77
59859;BME280;45734;53.648;9.566;2023-05-25T15:48:02;91649.44;;;-145.06;67.94
59859;BME280;45734;53.648;9.566;2023-05-25T15:53:03;91741.44;;;-145.06;68.40
59859;BME280;45734;53.648;9.566;2023-05-25T15:58:03;91661.72;;;-145.06;68.30
59859;BME280;45734;53.648;9.566;2023-05-25T16:03:04;91688.28;;;-145.06;68.87
59859;BME280;45734;53.648;9.566;2023-05-25T16:08:04;91688.28;;;-145.06;68.24
59859;BME280;45734;53.648;9.566;2023-05-25T16:13:04;91739.41;;;-145.06;70.28
59859;BME280;45734;53.648;9.566;2023-05-25T16:18:05;91755.75;;;-145.06;70.40
59859;BME280;45734;53.648;9.566;2023-05-25T16:23:05;91772.13;;;-145.06;70.66
59859;BME280;45734;53.648;9.566;2023-05-25T16:28:05;91772.13;;;-145.06;70.13
59859;BME280;45734;53.648;9.566;2023-05-25T16:33:05;91774.16;;;-145.06;70.14
59859;BME280;45734;53.648;9.566;2023-05-25T16:38:06;91853.91;;;-145.06;70.74
59859;BME280;45734;53.648;9.566;2023-05-25T16:43:06;91898.88;;;-145.06;72.62
59859;BME280;45734;53.648;9.566;2023-05-25T16:48:06;91956.13;;;-145.06;71.63
59859;BME280;45734;53.648;9.566;2023-05-25T16:53:07;92021.53;;;-145.06;71.42
59859;BME280;45734;53.648;9.566;2023-05-25T16:58:07;92131.94;;;-145.06;70.04
59859;BME280;45734;53.648;9.566;2023-05-25T17:03:07;92160.56;;;-145.06;70.28
59859;BME280;45734;53.648;9.566;2023-05-25T17:08:08;92236.22;;;-145.06;69.61
59859;BME280;45734;53.648;9.566;2023-05-25T17:13:08;92262.81;;;-145.06;70.02
59859;BME280;45734;53.648;9.566;2023-05-25T17:18:08;92305.75;;;-145.06;70.69
59859;BME280;45734;53.648;9.566;2023-05-25T17:23:09;92303.69;;;-145.06;72.10
59859;BME280;45734;53.648;9.566;2023-05-25T17:28:09;92336.41;;;-145.06;74.10
59859;BME280;45734;53.648;9.566;2023-05-25T17:33:09;92387.53;;;-145.06;74.84
59859;BME280;45734;53.648;9.566;2023-05-25T17:38:10;92385.50;;;-145.06;74.48
59859;BME280;45734;53.648;9.566;2023-05-25T17:43:10;92448.88;;;-145.06;75.13
59859;BME280;45734;53.648;9.566;2023-05-25T17:48:10;92414.13;;;-145.06;76.09
59859;BME280;45734;53.648;9.566;2023-05-25T17:53:11;92528.63;;;-145.06;77.01
59859;BME280;45734;53.648;9.566;2023-05-25T17:58:11;92540.91;;;-145.06;76.79
59859;BME280;45734;53.648;9.566;2023-05-25T18:03:12;92481.59;;;-145.06;77.00
59859;BME280;45734;53.648;9.566;2023-05-25T18:08:13;92493.88;;;-145.06;76.09
59859;BME280;45734;53.648;9.566;2023-05-25T18:13:13;92536.81;;;-145.06;76.67
59859;BME280;45734;53.648;9.566;2023-05-25T18:18:14;92538.84;;;-145.06;76.98
59859;BME280;45734;53.648;9.566;2023-05-25T18:23:15;92585.88;;;-145.06;77.53
59859;BME280;45734;53.648;9.566;2023-05-25T18:28:15;92573.63;;;-145.06;77.25
59859;BME280;45734;53.648;9.566;2023-05-25T18:33:16;92626.78;;;-145.06;79.60
59859;BME280;45734;53.648;9.566;2023-05-25T18:38:16;92610.41;;;-145.06;81.44
59859;BME280;45734;53.648;9.566;2023-05-25T18:43:16;92647.22;;;-145.06;83.02
59859;BME280;45734;53.648;9.566;2023-05-25T18:48:17;92729.03;;;-145.06;85.21
59859;BME280;45734;53.648;9.566;2023-05-25T18:53:17;92694.25;;;-145.06;84.65
59859;BME280;45734;53.648;9.566;2023-05-25T18:58:17;92686.09;;;-145.06;82.66
59859;BME280;45734;53.648;9.566;2023-05-25T19:03:18;92665.63;;;-145.06;85.66
59859;BME280;45734;53.648;9.566;2023-05-25T19:08:18;92704.50;;;-145.06;85.19
59859;BME280;45734;53.648;9.566;2023-05-25T19:13:19;92745.38;;;-145.06;84.80
59859;BME280;45734;53.648;9.566;2023-05-25T19:18:21;92716.75;;;-145.06;84.16
59859;BME280;45734;53.648;9.566;2023-05-25T19:23:22;92761.75;;;-145.06;86.00
59859;BME280;45734;53.648;9.566;2023-05-25T19:28:22;92755.59;;;-145.06;83.95
59859;BME280;45734;53.648;9.566;2023-05-25T19:33:22;92774.00;;;-145.06;85.31
59859;BME280;45734;53.648;9.566;2023-05-25T19:38:22;92804.69;;;-145.06;86.97
59859;BME280;45734;53.648;9.566;2023-05-25T19:43:23;92810.81;;;-145.06;88.47
59859;BME280;45734;53.648;9.566;2023-05-25T19:48:23;92816.97;;;-145.06;91.79
59859;BME280;45734;53.648;9.566;2023-05-25T19:53:24;92849.69;;;-145.06;95.88
59859;BME280;45734;53.648;9.566;2023-05-25T19:58:24;92872.16;;;-145.06;97.21
59859;BME280;45734;53.648;9.566;2023-05-25T20:03:24;92861.94;;;-145.06;99.36
59859;BME280;45734;53.648;9.566;2023-05-25T20:08:25;92896.72;;;-145.06;100.00
59859;BME280;45734;53.648;9.566;2023-05-25T20:13:26;92915.13;;;-145.06;100.00
59859;BME280;45734;53.648;9.566;2023-05-25T20:18:26;92900.81;;;-145.06;100.00
59859;BME280;45734;53.648;9.566;2023-05-25T20:23:27;92888.53;;;-145.06;100.00
59859;BME280;45734;53.648;9.566;2023-05-25T20:28:27;92904.88;;;-145.06;100.00
59859;BME280;45734;53.648;9.566;2023-05-25T20:33:27;92917.16;;;-145.06;100.00
59859;BME280;45734;53.648;9.566;2023-05-25T20:38:27;92921.25;;;-145.06;100.00
59859;BME280;45734;53.648;9.566;2023-05-25T20:43:28;92949.88;;;-145.06;100.00
59859;BME280;45734;53.648;9.566;2023-05-25T20:48:28;92976.47;;;-145.06;100.00
59859;BME280;45734;53.648;9.566;2023-05-25T20:53:29;92978.50;;;-145.06;100.00
59859;BME280;45734;53.648;9.566;2023-05-25T20:58:29;92964.19;;;-145.06;100.00
59859;BME280;45734;53.648;9.566;2023-05-25T21:03:29;92974.41;;;-145.06;100.00
59859;BME280;45734;53.648;9.566;2023-05-25T21:08:30;93009.19;;;-145.06;100.00
59859;BME280;45734;53.648;9.566;2023-05-25T21:13:31;93013.28;;;-145.06;100.00
59859;BME280;45734;53.648;9.566;2023-05-25T21:18:31;93048.03;;;-145.06;100.00
59859;BME280;45734;53.648;9.566;2023-05-25T21:23:31;93015.31;;;-145.06;100.00
59859;BME280;45734;53.648;9.566;2023-05-25T21:28:31;93066.44;;;-145.06;100.00
59859;BME280;45734;53.648;9.566;2023-05-25T21:33:32;93076.69;;;-145.06;100.00
59859;BME280;45734;53.648;9.566;2023-05-25T21:38:34;93031.69;;;-145.06;100.00
59859;BME280;45734;53.648;9.566;2023-05-25T21:43:35;93035.78;;;-145.06;100.00
59859;BME280;45734;53.648;9.566;2023-05-25T21:48:35;93066.44;;;-145.06;100.00
59859;BME280;45734;53.648;9.566;2023-05-25T21:53:35;93078.72;;;-145.06;100.00
59859;BME280;45734;53.648;9.566;2023-05-25T21:58:36;93084.84;;;-145.06;100.00
59859;BME280;45734;53.648;9.566;2023-05-25T22:03:36;93117.56;;;-145.06;100.00
59859;BME280;45734;53.648;9.566;2023-05-25T22:08:36;93101.22;;;-145.06;100.00
59859;BME280;45734;53.648;9.566;2023-05-25T22:13:36;93095.09;;;-145.06;100.00
59859;BME280;45734;53.648;9.566;2023-05-25T22:18:37;93088.94;;;-145.06;100.00
59859;BME280;45734;53.648;9.566;2023-05-25T22:23:37;93101.22;;;-145.06;100.00
59859;BME280;45734;53.648;9.566;2023-05-25T22:28:37;93109.41;;;-145.06;100.00
59859;BME280;45734;53.648;9.566;2023-05-25T22:33:38;93101.22;;;-145.06;100.00
59859;BME280;45734;53.648;9.566;2023-05-25T22:38:38;93084.84;;;-145.06;100.00
59859;BME280;45734;53.648;9.566;2023-05-25T22:43:38;93109.41;;;-145.06;100.00
59859;BME280;45734;53.648;9.566;2023-05-25T22:48:38;93086.91;;;-145.06;100.00
59859;BME280;45734;53.648;9.566;2023-05-25T22:53:39;93105.31;;;-145.06;100.00
59859;BME280;45734;53.648;9.566;2023-05-25T22:58:40;93097.13;;;-145.06;100.00
59859;BME280;45734;53.648;9.566;2023-05-25T23:03:40;93078.72;;;-145.06;100.00
59859;BME280;45734;53.648;9.566;2023-05-25T23:08:40;93131.91;;;-145.06;100.00
59859;BME280;45734;53.648;9.566;2023-05-25T23:13:42;93056.22;;;-145.06;100.00
59859;BME280;45734;53.648;9.566;2023-05-25T23:18:45;93097.13;;;-145.06;100.00
59859;BME280;45734;53.648;9.566;2023-05-25T23:23:45;93117.56;;;-145.06;100.00
59859;BME280;45734;53.648;9.566;2023-05-25T23:28:46;93138.03;;;-145.06;100.00
59859;BME280;45734;53.648;9.566;2023-05-25T23:33:46;93113.50;;;-145.06;100.00
59859;BME280;45734;53.648;9.566;2023-05-25T23:38:46;93111.44;;;-145.06;100.00
59859;BME280;45734;53.648;9.566;2023-05-25T23:43:46;93058.28;;;-145.06;100.00
59859;BME280;45734;53.648;9.566;2023-05-25T23:48:47;93127.81;;;-145.06;100.00
59859;BME280;45734;53.648;9.566;2023-05-25T23:53:47;93140.06;;;-145.06;100.00
59859;BME280;45734;53.648;9.566;2023-05-25T23:58:47;93105.31;;;-145.06;100.00
